Time;durP1;ratioP1;P1;durP2;ratioP2;P2;SDS_P1;SDS_P2;PMS_P1;PMS_P2;Temp;Humidity;BMP_temperature;BMP_pressure;BME280_temperature;BME280_humidity;BME280_pressure;Samples;Min_cycle;Max_cycle;Signal;HPM_P1;HPM_P2
2021/07/27 00:02:29;;;;;;;4.57;3.17;;;;;;;19.19;71.42;99797.94;4965474;28;20031;-78
2021/07/27 00:04:55;;;;;;;3.95;3.65;;;;;;;19.19;71.20;99790.44;4985981;28;20089;-78
2021/07/27 00:07:25;;;;;;;3.72;3.42;;;;;;;19.27;71.01;99801.78;4967576;28;20061;-77
2021/07/27 00:09:58;;;;;;;3.20;2.80;;;;;;;19.26;70.66;99794.63;4953891;28;20022;-78
2021/07/27 00:12:25;;;;;;;3.08;2.75;;;;;;;19.33;70.28;99803.19;4997301;28;20031;-76
2021/07/27 00:14:51;;;;;;;5.00;3.53;;;;;;;19.20;70.65;99785.69;4994118;28;20018;-77
2021/07/27 00:17:26;;;;;;;3.35;3.05;;;;;;;19.35;70.88;99815.56;5001322;28;20034;-77
2021/07/27 00:20:21;;;;;;;3.85;3.55;;;;;;;19.35;70.57;99810.03;5001061;28;20026;-76
2021/07/27 00:22:47;;;;;;;4.10;3.80;;;;;;;19.29;70.89;99810.56;4962334;28;20475;-76
2021/07/27 00:25:16;;;;;;;4.75;3.15;;;;;;;19.33;70.40;99817.88;4997887;28;20023;-73
2021/07/27 00:27:43;;;;;;;3.40;3.20;;;;;;;19.33;70.41;99820.66;4992413;28;20027;-77
2021/07/27 00:30:12;;;;;;;7.57;3.55;;;;;;;19.25;70.35;99816.00;5001955;28;20491;-77
2021/07/27 00:32:41;;;;;;;4.20;3.90;;;;;;;19.29;71.39;99822.47;4984575;28;20029;-79
2021/07/27 00:35:10;;;;;;;8.95;4.63;;;;;;;19.13;71.35;99811.19;4986091;28;20069;-79
2021/07/27 00:37:57;;;;;;;;;;;;;;;;;;;;;
2021/07/27 00:40:22;;;;;;;2.90;2.80;;;;;;;19.19;70.71;99822.91;5002216;28;20034;-77
2021/07/27 00:42:48;;;;;;;4.25;3.45;;;;;;;19.23;71.55;99823.84;4992817;28;20072;-77
2021/07/27 00:45:17;;;;;;;4.57;4.15;;;;;;;19.14;71.80;99817.53;4985308;28;20023;-77
2021/07/27 00:47:43;;;;;;;5.57;4.25;;;;;;;19.22;71.63;99826.97;4997960;28;20041;-76
2021/07/27 00:50:10;;;;;;;5.88;2.95;;;;;;;19.22;71.43;99826.97;4981154;28;20026;-75
2021/07/27 00:52:37;;;;;;;3.70;3.50;;;;;;;19.21;71.54;99823.34;4983071;28;20037;-75
2021/07/27 00:55:04;;;;;;;7.05;3.65;;;;;;;19.19;71.62;99828.44;4979383;28;20098;-77
2021/07/27 00:57:35;;;;;;;3.83;3.63;;;;;;;19.16;71.72;99815.25;4983775;28;20038;-78
2021/07/27 01:00:01;;;;;;;3.80;3.55;;;;;;;19.17;72.19;99817.69;4993804;28;20025;-79
2021/07/27 01:02:29;;;;;;;4.05;3.65;;;;;;;19.16;72.26;99815.25;4981371;28;20029;-77
2021/07/27 01:05:00;;;;;;;8.85;4.63;;;;;;;19.14;72.05;99820.31;4980159;28;20053;-77
2021/07/27 01:07:28;;;;;;;4.13;3.83;;;;;;;19.08;72.63;99791.19;4986694;28;20057;-77
2021/07/27 01:09:57;;;;;;;4.90;4.43;;;;;;;19.15;71.80;99805.31;4980822;28;20125;-79
2021/07/27 01:12:23;;;;;;;5.25;4.95;;;;;;;19.05;72.32;99797.41;5000071;28;20019;-78
2021/07/27 01:14:48;;;;;;;3.97;3.67;;;;;;;19.14;72.90;99809.22;4995454;28;20034;-78
2021/07/27 01:17:14;;;;;;;4.07;3.78;;;;;;;19.13;72.42;99810.41;4984996;28;20027;-78
2021/07/27 01:19:53;;;;;;;4.38;3.50;;;;;;;19.10;72.44;99805.50;5002795;28;20026;-78
2021/07/27 01:43:52;;;;;;;4.95;4.25;;;;;;;18.88;74.16;99801.94;4996656;28;20026;-75
2021/07/27 01:46:18;;;;;;;9.02;4.43;;;;;;;18.86;74.24;99798.69;4983742;28;20479;-75
2021/07/27 01:48:44;;;;;;;4.72;4.38;;;;;;;18.85;74.14;99791.50;4997019;28;20026;-76
2021/07/27 01:51:10;;;;;;;3.67;3.35;;;;;;;18.85;74.15;99797.03;4971366;28;20053;-74
2021/07/27 01:56:15;;;;;;;4.05;3.83;;;;;;;18.83;74.06;99783.50;4990922;28;20070;-76
2021/07/27 01:58:42;;;;;;;4.53;4.32;;;;;;;18.81;73.91;99790.56;4999477;28;20065;-75
2021/07/27 02:01:07;;;;;;;10.77;4.53;;;;;;;18.80;73.94;99788.94;4961410;28;20828;-74
2021/07/27 02:03:33;;;;;;;3.72;3.45;;;;;;;18.80;73.96;99786.16;4975254;28;20065;-76
2021/07/27 02:05:58;;;;;;;3.58;3.38;;;;;;;18.81;73.56;99796.09;4968716;28;20094;-75
2021/07/27 02:08:24;;;;;;;3.72;3.42;;;;;;;18.79;73.77;99793.66;4993576;28;20026;-75
2021/07/27 02:10:55;;;;;;;5.13;4.10;;;;;;;18.77;74.00;99789.63;4979207;28;20042;-76
2021/07/27 02:13:29;;;;;;;3.35;3.17;;;;;;;18.78;74.17;99785.69;4974262;28;20045;-77
2021/07/27 02:15:55;;;;;;;4.18;3.97;;;;;;;18.78;74.04;99774.63;4980475;28;20023;-76
2021/07/27 02:18:21;;;;;;;5.43;4.13;;;;;;;18.79;73.51;99776.22;4977680;28;21276;-76
2021/07/27 02:20:46;;;;;;;4.35;3.95;;;;;;;18.79;73.95;99776.22;4992028;28;20026;-77
2021/07/27 02:23:12;;;;;;;3.65;3.38;;;;;;;18.78;73.41;99775.44;4968579;28;20038;-76
2021/07/27 02:25:37;;;;;;;3.20;2.90;;;;;;;18.80;73.72;99772.31;4996510;28;20467;-75
2021/07/27 02:28:04;;;;;;;3.83;3.53;;;;;;;18.77;73.27;99764.69;4954931;28;20026;-76
2021/07/27 02:30:33;;;;;;;3.45;3.20;;;;;;;18.73;73.40;99766.50;4992676;28;20117;-77
2021/07/27 02:32:59;;;;;;;3.47;3.17;;;;;;;18.70;73.53;99756.09;4974350;28;20061;-77
2021/07/27 02:35:24;;;;;;;3.38;3.13;;;;;;;18.73;73.80;99760.97;4965919;28;20052;-78
2021/07/27 02:37:50;;;;;;;4.00;3.70;;;;;;;18.72;73.93;99762.09;4977210;28;20081;-77
2021/07/27 02:40:15;;;;;;;3.60;3.40;;;;;;;18.71;73.51;99752.19;4980430;28;20042;-77
2021/07/27 02:42:41;;;;;;;3.47;3.35;;;;;;;18.69;73.49;99738.69;4963398;28;20045;-78
2021/07/27 02:45:11;;;;;;;3.28;3.17;;;;;;;18.72;73.77;99742.72;4958431;28;20038;-77
2021/07/27 02:47:39;;;;;;;3.67;2.90;;;;;;;18.71;73.45;99741.13;4987969;28;20046;-76
2021/07/27 02:50:06;;;;;;;2.63;2.53;;;;;;;18.71;73.64;99732.81;4976876;28;20134;-74
2021/07/27 02:52:35;;;;;;;2.75;2.65;;;;;;;18.70;73.65;99743.06;4993022;28;20022;-75
2021/07/27 02:55:01;;;;;;;3.17;1.95;;;;;;;18.70;73.52;99733.94;4968988;28;20057;-74
2021/07/27 02:57:26;;;;;;;2.42;1.50;;;;;;;18.71;73.07;99741.13;4983112;28;20116;-74
2021/07/27 02:59:57;;;;;;;1.20;1.20;;;;;;;18.71;73.01;99732.81;4993838;28;20042;-75
2021/07/27 03:02:26;;;;;;;1.85;1.75;;;;;;;18.67;73.29;99739.03;4983514;28;20061;-74
2021/07/27 03:04:52;;;;;;;2.67;2.47;;;;;;;18.66;73.68;99740.16;4971213;28;20465;-75
2021/07/27 03:07:20;;;;;;;3.35;3.15;;;;;;;18.61;73.60;99743.13;4931571;28;20027;-75
2021/07/27 03:12:31;;;;;;;5.13;3.42;;;;;;;18.53;73.84;99735.72;4995134;28;20080;-75
2021/07/27 03:15:00;;;;;;;13.50;3.92;;;;;;;18.53;73.53;99740.41;4975910;28;20034;-75
2021/07/27 03:17:26;;;;;;;4.07;3.88;;;;;;;18.48;73.74;99733.91;4971036;28;20392;-75
2021/07/27 03:19:52;;;;;;;4.80;4.40;;;;;;;18.47;74.09;99742.56;4990297;28;20034;-75
2021/07/27 03:22:20;;;;;;;3.75;3.55;;;;;;;18.49;73.60;99740.28;4976739;28;20034;-74
2021/07/27 03:24:45;;;;;;;4.38;4.10;;;;;;;18.46;73.60;99739.00;4958389;28;20041;-75
2021/07/27 03:27:12;;;;;;;5.38;4.78;;;;;;;18.42;74.09;99732.50;4976535;28;20102;-75
2021/07/27 03:29:38;;;;;;;3.10;3.00;;;;;;;18.42;74.05;99740.81;4991607;28;20026;-77
2021/07/27 03:32:04;;;;;;;3.25;3.15;;;;;;;18.34;73.69;99738.09;4969330;28;20391;-76
2021/07/27 03:34:29;;;;;;;3.05;2.83;;;;;;;18.36;73.78;99735.81;4975247;28;20624;-76
2021/07/27 03:36:55;;;;;;;4.65;3.80;;;;;;;18.40;74.13;99747.81;4995377;28;20086;-75
2021/07/27 03:39:20;;;;;;;20.38;4.07;;;;;;;18.34;73.91;99749.16;4978566;28;20053;-76
2021/07/27 03:41:46;;;;;;;3.97;3.78;;;;;;;18.37;73.88;99752.09;4968086;28;20042;-77
2021/07/27 03:44:14;;;;;;;3.58;3.28;;;;;;;18.36;74.01;99752.44;4997602;28;20041;-76
2021/07/27 03:46:46;;;;;;;3.22;3.10;;;;;;;18.38;73.66;99755.66;4997236;28;20030;-77
2021/07/27 03:49:11;;;;;;;3.28;3.08;;;;;;;18.30;74.04;99741.53;4995818;28;20033;-75
2021/07/27 03:51:37;;;;;;;3.65;3.45;;;;;;;18.28;73.90;99738.31;4989461;28;20109;-75
2021/07/27 03:54:06;;;;;;;5.18;4.88;;;;;;;18.37;74.32;99748.50;4975013;28;20034;-76
2021/07/27 03:56:31;;;;;;;3.00;2.80;;;;;;;18.35;74.69;99745.25;4982483;28;20528;-76
2021/07/27 03:58:59;;;;;;;2.50;2.35;;;;;;;18.29;74.48;99736.34;4986200;28;20121;-76
2021/07/27 04:01:24;;;;;;;6.38;4.05;;;;;;;18.23;74.09;99732.94;4983023;28;20061;-77
2021/07/27 04:03:50;;;;;;;3.83;3.33;;;;;;;18.32;74.57;99743.97;4960946;28;20031;-77
2021/07/27 04:06:21;;;;;;;3.55;3.35;;;;;;;18.31;73.96;99753.41;4982695;28;20031;-77
2021/07/27 04:08:46;;;;;;;3.17;2.97;;;;;;;18.22;74.52;99739.63;4981184;28;20034;-76
2021/07/27 04:11:15;;;;;;;3.10;2.92;;;;;;;18.28;74.48;99746.59;4986190;28;20035;-74
2021/07/27 04:13:43;;;;;;;2.63;2.53;;;;;;;18.29;74.31;99741.88;5000493;28;20018;-76
2021/07/27 04:16:08;;;;;;;2.38;2.28;;;;;;;18.28;74.61;99735.53;4981788;28;20137;-76
2021/07/27 04:18:33;;;;;;;2.40;2.30;;;;;;;18.27;74.46;99733.09;5000616;28;20050;-74
2021/07/27 04:21:02;;;;;;;1.90;1.80;;;;;;;18.29;74.26;99737.13;4974382;28;20038;-74
2021/07/27 04:23:28;;;;;;;2.38;2.28;;;;;;;18.33;74.43;99730.97;4955058;28;20061;-75
2021/07/27 04:25:53;;;;;;;2.75;2.65;;;;;;;18.38;74.45;99733.50;4987836;28;20019;-74
2021/07/27 04:28:19;;;;;;;2.95;2.85;;;;;;;18.39;74.03;99737.91;4994512;28;20065;-75
2021/07/27 04:30:45;;;;;;;1.77;1.67;;;;;;;18.41;74.15;99735.59;4965514;28;20109;-74
2021/07/27 04:33:10;;;;;;;3.80;2.22;;;;;;;18.41;74.23;99730.91;4995549;28;20058;-74
2021/07/27 04:35:37;;;;;;;11.82;3.10;;;;;;;18.32;73.61;99724.59;4959343;28;20303;-73
2021/07/27 04:38:03;;;;;;;5.03;3.47;;;;;;;18.27;74.02;99728.38;4967621;28;20164;-74
2021/07/27 04:40:28;;;;;;;3.05;2.78;;;;;;;18.24;74.15;99728.25;4981465;28;20120;-72
2021/07/27 04:42:54;;;;;;;2.72;2.63;;;;;;;18.17;73.82;99731.53;4981201;28;20026;-74
2021/07/27 04:45:19;;;;;;;3.10;3.00;;;;;;;18.17;73.95;99734.28;4965827;28;20070;-73
2021/07/27 04:47:44;;;;;;;2.63;2.42;;;;;;;18.15;74.21;99731.06;4952379;28;20031;-74
2021/07/27 04:50:10;;;;;;;2.72;2.53;;;;;;;18.11;74.07;99721.81;4966058;28;20030;-73
2021/07/27 04:52:37;;;;;;;2.90;2.70;;;;;;;18.12;74.23;99715.09;4993625;28;20129;-72
2021/07/27 04:55:03;;;;;;;3.78;3.47;;;;;;;18.08;74.26;99714.19;4963039;28;20047;-73
2021/07/27 04:57:28;;;;;;;3.05;2.95;;;;;;;18.11;73.98;99724.56;4978732;28;20030;-73
2021/07/27 04:59:54;;;;;;;2.58;2.45;;;;;;;18.10;74.21;99717.41;4970780;28;20392;-74
2021/07/27 05:02:21;;;;;;;2.28;2.17;;;;;;;18.09;74.30;99715.78;4962018;28;20102;-74
2021/07/27 05:04:47;;;;;;;2.88;2.67;;;;;;;18.09;74.21;99716.59;4991587;28;20457;-74
2021/07/27 05:07:12;;;;;;;5.57;3.50;;;;;;;18.08;74.31;99719.72;4980984;28;20045;-73
2021/07/27 05:09:38;;;;;;;3.28;3.10;;;;;;;18.03;74.00;99717.13;4976523;28;20030;-73
2021/07/27 05:12:04;;;;;;;5.78;3.35;;;;;;;18.01;73.85;99708.34;4995491;28;20053;-72
2021/07/27 05:14:30;;;;;;;3.33;3.13;;;;;;;17.94;73.70;99709.66;4976799;28;20465;-74
2021/07/27 05:16:56;;;;;;;3.30;3.10;;;;;;;17.90;73.99;99705.97;4968538;28;20053;-73
2021/07/27 05:19:22;;;;;;;2.55;2.35;;;;;;;17.88;73.41;99704.63;4989782;28;20097;-74
2021/07/27 05:21:50;;;;;;;7.38;2.85;;;;;;;17.84;73.88;99704.47;4996238;28;20031;-74
2021/07/27 05:24:15;;;;;;;2.67;2.47;;;;;;;17.83;73.69;99699.28;4996101;28;20030;-74
2021/07/27 05:26:41;;;;;;;2.47;2.22;;;;;;;17.83;73.82;99697.34;4995600;28;20236;-73
2021/07/27 05:29:06;;;;;;;3.97;1.52;;;;;;;17.84;73.77;99698.16;4998661;28;20034;-74
2021/07/27 05:31:31;;;;;;;4.95;1.70;;;;;;;17.87;73.25;99692.78;4978812;28;20488;-74
2021/07/27 05:33:58;;;;;;;1.38;1.35;;;;;;;17.90;73.52;99688.53;4960024;28;20026;-74
2021/07/27 05:36:23;;;;;;;1.67;1.35;;;;;;;17.91;73.08;99682.66;4972136;28;20077;-74
2021/07/27 05:38:50;;;;;;;2.05;1.95;;;;;;;17.92;73.19;99684.31;4981413;28;20118;-74
2021/07/27 05:41:16;;;;;;;2.70;1.65;;;;;;;17.94;73.27;99686.72;4993059;28;20035;-75
2021/07/27 05:43:44;;;;;;;1.75;1.65;;;;;;;17.89;72.77;99679.41;4991268;28;20030;-74
2021/07/27 05:46:09;;;;;;;4.60;1.30;;;;;;;17.95;73.15;99689.16;4952189;28;20136;-74
2021/07/27 05:48:34;;;;;;;3.70;1.75;;;;;;;18.01;73.21;99686.22;4978101;28;20026;-75
2021/07/27 05:51:10;;;;;;;1.60;1.50;;;;;;;18.01;72.68;99675.16;4993887;28;20065;-76
2021/07/27 05:53:35;;;;;;;3.65;1.45;;;;;;;17.99;72.86;99677.44;4966323;28;20026;-73
2021/07/27 05:56:04;;;;;;;3.70;2.30;;;;;;;17.99;72.76;99671.91;4956339;28;20060;-77
2021/07/27 05:58:32;;;;;;;3.45;2.25;;;;;;;17.98;72.76;99681.34;4987494;28;20038;-80
2021/07/27 06:00:57;;;;;;;2.35;1.92;;;;;;;17.90;72.57;99681.06;4962028;28;20403;-79
2021/07/27 06:03:25;;;;;;;1.80;1.70;;;;;;;17.90;72.65;99677.47;5001444;28;20054;-77
2021/07/27 06:05:51;;;;;;;7.10;1.65;;;;;;;17.85;72.72;99675.69;4984256;28;20030;-78
2021/07/27 06:08:16;;;;;;;10.70;1.98;;;;;;;17.91;72.64;99688.19;4977580;28;20267;-75
2021/07/27 06:10:42;;;;;;;2.97;1.25;;;;;;;17.91;72.69;99682.66;4955463;28;20042;-73
2021/07/27 06:13:07;;;;;;;2.42;1.35;;;;;;;17.98;72.62;99675.81;4977292;28;20045;-73
2021/07/27 06:15:33;;;;;;;1.80;1.48;;;;;;;18.03;72.76;99683.91;4952708;28;20027;-73
2021/07/27 06:17:59;;;;;;;1.52;1.25;;;;;;;18.07;72.76;99684.88;4950139;28;20376;-73
2021/07/27 06:20:25;;;;;;;1.10;1.10;;;;;;;18.15;72.69;99689.56;4976593;28;20022;-73
2021/07/27 06:22:52;;;;;;;1.17;1.17;;;;;;;18.20;72.08;99678.28;4997062;28;20049;-72
2021/07/27 06:25:18;;;;;;;1.77;1.67;;;;;;;18.25;72.23;99691.09;4990263;28;20445;-74
2021/07/27 06:27:43;;;;;;;3.05;1.50;;;;;;;18.27;72.16;99686.84;4995869;28;20113;-73
2021/07/27 06:30:11;;;;;;;1.63;1.52;;;;;;;18.31;72.23;99690.59;4968532;28;20166;-72
2021/07/27 06:32:36;;;;;;;4.43;1.25;;;;;;;18.38;71.69;99684.50;4962239;28;20084;-73
2021/07/27 06:35:05;;;;;;;3.08;1.67;;;;;;;18.48;71.59;99686.06;4973762;28;20392;-74
2021/07/27 06:37:30;;;;;;;3.95;1.27;;;;;;;18.53;71.70;99680.34;4952552;28;20034;-73
2021/07/27 06:39:58;;;;;;;1.63;1.27;;;;;;;18.59;71.71;99673.44;4975569;28;20100;-73
2021/07/27 06:42:56;;;;;;;1.92;1.80;;;;;;;18.61;71.34;99671.13;4978081;28;20515;-73
2021/07/27 06:45:21;;;;;;;6.78;2.22;;;;;;;18.57;70.89;99664.66;4973065;28;20049;-74
2021/07/27 06:47:49;;;;;;;2.95;1.80;;;;;;;18.56;70.67;99663.03;4993541;28;20030;-76
2021/07/27 06:54:22;;;;;;;1.90;1.67;;;;;;;18.61;70.83;99664.78;4948503;28;20042;-74
2021/07/27 06:57:16;;;;;;;1.50;1.40;;;;;;;18.46;70.93;99647.66;4954675;28;20046;-74
2021/07/27 06:59:41;;;;;;;8.02;1.70;;;;;;;18.56;70.65;99678.81;4987813;28;20035;-73
2021/07/27 07:05:04;;;;;;;;;;;;;;;;;;;;;
2021/07/27 07:07:50;;;;;;;2.67;1.30;;;;;;;18.60;70.11;99652.09;4993057;28;20093;-75
2021/07/27 07:10:16;;;;;;;1.13;1.02;;;;;;;18.63;70.11;99654.19;4974581;28;20040;-75
2021/07/27 07:12:41;;;;;;;1.23;1.13;;;;;;;18.72;69.57;99665.19;4979481;28;20157;-73
2021/07/27 07:15:07;;;;;;;2.55;1.52;;;;;;;18.81;69.42;99674.25;4997143;28;20030;-78
2021/07/27 07:17:33;;;;;;;1.60;1.50;;;;;;;18.95;69.70;99679.50;4978349;28;20106;-75
2021/07/27 07:20:00;;;;;;;2.85;1.58;;;;;;;19.00;68.89;99685.66;5002300;28;20038;-73
2021/07/27 07:22:26;;;;;;;1.85;1.27;;;;;;;18.96;68.33;99681.94;4982062;28;20043;-71
2021/07/27 07:24:51;;;;;;;1.65;1.55;;;;;;;18.95;68.64;99674.78;4979418;28;20026;-70
2021/07/27 07:27:17;;;;;;;1.60;1.55;;;;;;;18.97;68.54;99672.47;4979166;28;20050;-71
2021/07/27 07:29:43;;;;;;;1.30;1.30;;;;;;;19.09;68.63;99673.69;4982818;28;20018;-71
2021/07/27 07:32:08;;;;;;;1.83;1.73;;;;;;;19.25;68.18;99671.88;4978840;28;20030;-71
2021/07/27 07:34:34;;;;;;;1.60;1.40;;;;;;;19.53;68.15;99671.22;4974914;28;20042;-72
2021/07/27 07:37:00;;;;;;;1.20;1.10;;;;;;;19.80;67.44;99667.00;4949669;28;20526;-71
2021/07/27 07:39:29;;;;;;;0.80;0.80;;;;;;;20.05;66.73;99676.13;4975547;28;20035;-71
2021/07/27 07:41:54;;;;;;;1.23;1.13;;;;;;;20.36;66.49;99668.31;4977083;28;20414;-72
2021/07/27 07:44:20;;;;;;;0.88;0.88;;;;;;;20.61;65.26;99669.06;4965289;28;20037;-72
2021/07/27 07:46:45;;;;;;;1.30;1.10;;;;;;;20.86;63.62;99655.91;4957032;28;20027;-73
2021/07/27 07:49:11;;;;;;;0.95;0.95;;;;;;;21.14;63.50;99662.59;4973955;28;20106;-72
2021/07/27 07:51:43;;;;;;;0.90;0.90;;;;;;;21.39;62.41;99664.09;4979908;28;20106;-71
2021/07/27 07:54:08;;;;;;;5.45;1.00;;;;;;;21.60;62.06;99663.03;4974003;28;20025;-71
2021/07/27 07:56:34;;;;;;;1.23;1.23;;;;;;;21.78;61.51;99663.47;4954009;28;20381;-71
2021/07/27 07:58:59;;;;;;;0.80;0.80;;;;;;;22.00;60.79;99669.56;4964702;28;20057;-72
2021/07/27 08:01:25;;;;;;;0.80;0.80;;;;;;;22.17;60.49;99660.81;4980445;28;20564;-74
2021/07/27 08:03:53;;;;;;;2.15;1.05;;;;;;;22.26;59.33;99660.59;4964189;28;20472;-73
2021/07/27 08:06:25;;;;;;;1.33;0.98;;;;;;;22.40;59.59;99655.38;4965403;28;20049;-74
2021/07/27 08:08:52;;;;;;;2.05;1.08;;;;;;;22.57;58.25;99665.25;4968544;28;20038;-73
2021/07/27 08:11:18;;;;;;;1.10;1.00;;;;;;;22.48;57.01;99657.13;4982949;28;20034;-74
2021/07/27 08:13:43;;;;;;;2.45;1.13;;;;;;;22.51;57.82;99666.75;4962233;28;20026;-75
2021/07/27 08:16:10;;;;;;;0.73;0.73;;;;;;;22.62;57.87;99656.63;4977338;28;20484;-74
2021/07/27 08:18:36;;;;;;;0.70;0.70;;;;;;;22.89;57.98;99659.53;4983835;28;20026;-73
2021/07/27 08:21:02;;;;;;;0.75;0.75;;;;;;;23.06;57.57;99657.50;4988918;28;20093;-74
2021/07/27 08:23:27;;;;;;;0.85;0.80;;;;;;;23.11;57.13;99649.63;4997222;28;20096;-72
2021/07/27 08:25:52;;;;;;;1.00;0.80;;;;;;;23.17;56.46;99648.19;4978538;28;20466;-74
2021/07/27 08:28:18;;;;;;;0.80;0.60;;;;;;;22.98;56.70;99650.94;4976160;28;20392;-74
2021/07/27 08:30:43;;;;;;;0.70;0.70;;;;;;;22.81;56.10;99653.03;4971091;28;20027;-73
2021/07/27 08:33:09;;;;;;;1.00;1.00;;;;;;;22.83;56.30;99656.25;4998058;28;20050;-74
2021/07/27 08:35:34;;;;;;;0.70;0.70;;;;;;;23.02;56.89;99660.19;4997428;28;20416;-74
2021/07/27 08:38:00;;;;;;;0.80;0.80;;;;;;;23.26;55.27;99658.25;4973089;28;20044;-73
2021/07/27 08:40:28;;;;;;;1.20;0.85;;;;;;;23.39;54.75;99662.47;4963574;28;20034;-74
2021/07/27 08:42:54;;;;;;;2.20;1.00;;;;;;;23.54;53.67;99655.19;4961958;28;20026;-72
2021/07/27 08:45:20;;;;;;;1.15;1.05;;;;;;;23.72;54.45;99655.47;5003629;28;20033;-75
2021/07/27 08:47:47;;;;;;;0.47;0.47;;;;;;;23.99;54.93;99663.88;4975028;28;20034;-73
2021/07/27 08:50:13;;;;;;;1.00;0.85;;;;;;;24.31;52.84;99669.13;4975208;28;20030;-72
2021/07/27 08:52:39;;;;;;;2.38;1.10;;;;;;;24.42;51.52;99661.72;4999532;28;20034;-73
2021/07/27 08:55:06;;;;;;;0.70;0.70;;;;;;;24.63;52.47;99663.22;4980644;28;20719;-75
2021/07/27 08:57:31;;;;;;;1.30;0.88;;;;;;;24.95;51.66;99662.78;5000445;28;20030;-73
2021/07/27 08:59:57;;;;;;;2.40;1.20;;;;;;;24.82;50.11;99660.22;5001819;28;20384;-75
2021/07/27 09:02:26;;;;;;;0.77;0.77;;;;;;;24.62;50.09;99662.41;4963604;28;20069;-74
2021/07/27 09:05:12;;;;;;;0.85;0.85;;;;;;;24.36;50.67;99663.25;4977910;28;20022;-74
2021/07/27 09:07:38;;;;;;;2.03;0.80;;;;;;;24.00;51.51;99666.31;4979824;28;20031;-73
2021/07/27 09:10:23;;;;;;;1.10;1.02;;;;;;;23.76;51.96;99661.94;4955594;28;20029;-74
2021/07/27 09:13:00;;;;;;;0.70;0.70;;;;;;;23.64;52.68;99660.16;4980512;28;20032;-73
2021/07/27 09:15:32;;;;;;;4.15;0.73;;;;;;;23.46;51.87;99653.44;4981165;28;20037;-74
2021/07/27 09:18:06;;;;;;;2.97;0.93;;;;;;;23.39;52.09;99659.69;4994897;28;20542;-74
2021/07/27 09:20:35;;;;;;;1.75;1.65;;;;;;;23.39;51.23;99659.69;4978489;28;20398;-73
2021/07/27 09:23:03;;;;;;;1.38;1.27;;;;;;;23.60;52.47;99652.91;4983151;28;20025;-74
2021/07/27 09:25:31;;;;;;;2.25;1.10;;;;;;;23.98;51.95;99665.88;4958685;28;20026;-73
2021/07/27 09:28:07;;;;;;;0.82;0.82;;;;;;;24.28;51.49;99655.94;4981955;28;20027;-72
2021/07/27 09:30:34;;;;;;;1.10;1.00;;;;;;;24.49;49.83;99664.59;4986386;28;20117;-73
2021/07/27 09:33:00;;;;;;;1.17;1.17;;;;;;;24.69;49.33;99672.84;4977598;28;20056;-73
2021/07/27 09:35:29;;;;;;;0.60;0.60;;;;;;;24.91;49.68;99665.53;4978781;28;20038;-73
2021/07/27 09:38:01;;;;;;;0.60;0.60;;;;;;;25.20;47.01;99669.47;4962319;28;20026;-71
2021/07/27 09:40:26;;;;;;;1.00;1.00;;;;;;;25.15;46.31;99667.00;4968473;28;20030;-73
2021/07/27 09:42:53;;;;;;;3.85;0.90;;;;;;;25.31;45.66;99669.59;4974088;28;20022;-72
2021/07/27 09:45:18;;;;;;;0.80;0.80;;;;;;;25.31;46.87;99664.00;4977950;28;20072;-73
2021/07/27 09:47:48;;;;;;;1.05;1.00;;;;;;;25.20;46.22;99663.88;4989146;28;20066;-73
2021/07/27 09:50:15;;;;;;;0.68;0.68;;;;;;;25.09;46.72;99674.13;4988100;28;20032;-72
2021/07/27 09:52:43;;;;;;;0.95;0.95;;;;;;;25.05;46.29;99668.50;4957812;28;20065;-74
2021/07/27 09:55:10;;;;;;;0.80;0.80;;;;;;;25.20;47.16;99665.84;4989229;28;20042;-74
2021/07/27 09:57:36;;;;;;;0.50;0.50;;;;;;;25.48;47.22;99662.56;4999846;28;20026;-75
2021/07/27 10:00:01;;;;;;;0.60;0.60;;;;;;;25.87;47.70;99664.06;4972939;28;20100;-74
2021/07/27 10:02:28;;;;;;;0.68;0.68;;;;;;;26.21;47.00;99659.13;4983015;28;20094;-74
2021/07/27 10:04:55;;;;;;;1.85;1.27;;;;;;;26.55;44.80;99664.50;4957314;28;20027;-75
2021/07/27 10:07:30;;;;;;;1.08;0.77;;;;;;;26.89;44.76;99653.03;4983201;28;20038;-74
2021/07/27 10:10:10;;;;;;;0.98;0.98;;;;;;;27.10;42.40;99651.50;4946067;28;20129;-75
2021/07/27 10:12:37;;;;;;;0.70;0.70;;;;;;;27.13;43.33;99659.09;4998888;28;20489;-74
2021/07/27 10:15:11;;;;;;;1.20;1.10;;;;;;;27.13;42.79;99661.91;4982335;28;20030;-73
2021/07/27 10:17:54;;;;;;;1.08;1.02;;;;;;;27.17;42.84;99657.13;4979262;28;20041;-74
2021/07/27 10:20:28;;;;;;;0.40;0.40;;;;;;;27.08;43.58;99649.09;4982382;28;20060;-73
2021/07/27 10:22:54;;;;;;;1.55;1.17;;;;;;;27.10;43.05;99643.06;4980207;28;20038;-75
2021/07/27 10:25:30;;;;;;;1.42;1.20;;;;;;;27.22;42.88;99644.69;4982068;28;20069;-76
2021/07/27 10:28:00;;;;;;;1.45;1.00;;;;;;;27.12;42.28;99646.28;5000870;28;20376;-74
2021/07/27 10:30:33;;;;;;;0.82;0.75;;;;;;;27.13;43.04;99645.91;4962197;28;20034;-74
2021/07/27 10:32:59;;;;;;;1.13;1.13;;;;;;;27.05;42.17;99655.50;4965932;28;20034;-74
2021/07/27 10:35:36;;;;;;;1.05;1.05;;;;;;;26.92;41.56;99646.63;4962400;28;20026;-73
2021/07/27 10:38:10;;;;;;;2.95;1.50;;;;;;;26.96;42.34;99638.25;4972983;28;20042;-74
2021/07/27 10:40:36;;;;;;;1.77;1.67;;;;;;;27.26;40.71;99639.88;4973456;28;20022;-74
2021/07/27 10:43:03;;;;;;;4.55;1.70;;;;;;;27.27;41.28;99650.72;4960300;28;20065;-74
2021/07/27 10:45:29;;;;;;;2.30;1.63;;;;;;;27.06;41.07;99628.22;4979560;28;20040;-73
2021/07/27 10:47:55;;;;;;;6.50;1.70;;;;;;;26.56;42.09;99642.88;4944409;28;20030;-73
2021/07/27 10:50:40;;;;;;;1.80;1.70;;;;;;;25.85;44.37;99647.66;4975917;28;20150;-73
2021/07/27 10:53:32;;;;;;;2.20;2.10;;;;;;;25.13;47.51;99649.81;4997593;28;20065;-73
2021/07/27 10:56:22;;;;;;;2.83;1.73;;;;;;;23.99;51.65;99649.94;4979547;28;20054;-74
2021/07/27 10:58:48;;;;;;;1.70;1.60;;;;;;;23.23;53.22;99634.72;4982998;28;20039;-74
2021/07/27 11:01:14;;;;;;;1.75;1.65;;;;;;;23.04;54.57;99637.53;4962110;28;20181;-76
2021/07/27 11:04:35;;;;;;;2.08;1.98;;;;;;;22.90;54.17;99641.66;4970646;28;20113;-79
2021/07/27 11:07:14;;;;;;;2.03;1.92;;;;;;;22.96;54.75;99637.38;4981070;28;20015;-73
2021/07/27 11:09:58;;;;;;;2.50;2.30;;;;;;;23.24;55.18;99641.09;4973764;28;20550;-72
2021/07/27 11:12:35;;;;;;;1.85;1.75;;;;;;;23.51;54.90;99640.00;4989660;28;20057;-72
2021/07/27 11:15:46;;;;;;;2.00;1.90;;;;;;;24.05;54.53;99651.25;4977152;28;20023;-72
2021/07/27 11:18:16;;;;;;;2.47;2.38;;;;;;;24.41;54.15;99646.13;4968078;28;20053;-73
2021/07/27 11:20:42;;;;;;;2.90;2.70;;;;;;;24.73;52.24;99640.16;4982793;28;20104;-73
2021/07/27 11:23:10;;;;;;;2.75;2.58;;;;;;;25.06;51.69;99641.34;4938729;28;20057;-72
2021/07/27 11:25:36;;;;;;;3.28;3.08;;;;;;;25.57;50.98;99637.84;4991004;28;20037;-74
2021/07/27 11:28:12;;;;;;;2.75;2.60;;;;;;;26.11;48.75;99626.25;4992531;28;20034;-72
2021/07/27 11:30:38;;;;;;;2.85;2.65;;;;;;;26.29;47.76;99634.75;4953021;28;20033;-72
2021/07/27 11:33:08;;;;;;;2.50;2.40;;;;;;;26.39;46.82;99624.78;4972297;28;20027;-72
2021/07/27 11:35:42;;;;;;;2.13;1.92;;;;;;;26.29;45.90;99624.34;4989008;28;20025;-71
2021/07/27 11:38:08;;;;;;;1.90;1.80;;;;;;;25.93;46.29;99621.31;4994457;28;20023;-72
2021/07/27 11:40:34;;;;;;;2.65;2.55;;;;;;;25.43;46.74;99624.53;4963326;28;20033;-72
2021/07/27 11:43:05;;;;;;;2.88;2.78;;;;;;;24.92;48.85;99642.78;4982129;28;20403;-73
2021/07/27 11:45:49;;;;;;;4.82;2.60;;;;;;;23.17;63.15;99620.28;4981008;28;20133;-74
2021/07/27 11:48:19;;;;;;;3.53;2.30;;;;;;;21.82;69.45;99635.75;4969909;28;20384;-75
2021/07/27 11:50:44;;;;;;;1.50;1.50;;;;;;;20.81;72.76;99616.44;4994196;28;20030;-75
2021/07/27 11:53:22;;;;;;;2.38;2.28;;;;;;;20.19;74.26;99603.59;5001709;28;20465;-74
2021/07/27 11:55:47;;;;;;;2.78;2.58;;;;;;;19.96;75.92;99616.34;4994997;28;20046;-74
2021/07/27 11:58:25;;;;;;;3.65;3.42;;;;;;;19.76;76.73;99607.78;4998100;28;20023;-73
2021/07/27 12:00:58;;;;;;;3.88;2.47;;;;;;;19.82;77.83;99614.75;4986727;28;20038;-73
2021/07/27 12:03:24;;;;;;;1.98;1.88;;;;;;;20.03;78.85;99614.63;4990714;28;20048;-74
2021/07/27 12:05:50;;;;;;;1.98;1.88;;;;;;;20.32;79.75;99612.69;4987725;28;20093;-73
2021/07/27 12:08:16;;;;;;;2.30;2.10;;;;;;;20.72;79.59;99608.28;5012439;28;20052;-73
2021/07/27 12:10:41;;;;;;;3.35;3.17;;;;;;;21.47;79.58;99617.00;4962488;28;20039;-73
2021/07/27 12:13:07;;;;;;;3.20;2.60;;;;;;;22.14;77.41;99603.88;4959973;28;20042;-74
2021/07/27 12:15:32;;;;;;;3.05;2.95;;;;;;;22.08;75.44;99607.31;4993496;28;20038;-73
2021/07/27 12:18:24;;;;;;;1.73;1.73;;;;;;;21.95;76.55;99617.75;4955609;28;20030;-72